createdAt,value
2022-10-13T00:00:56.276Z,17.80
2022-10-13T00:03:24.101Z,15.03
2022-10-13T00:05:52.372Z,18.50
2022-10-13T00:08:22.113Z,19.90
2022-10-13T00:10:51.481Z,16.23
2022-10-13T00:13:21.582Z,14.53
2022-10-13T00:15:49.938Z,16.20
2022-10-13T00:18:17.982Z,17.77
2022-10-13T00:20:47.523Z,14.80
2022-10-13T00:23:16.150Z,15.20
2022-10-13T00:25:44.772Z,17.30
2022-10-13T00:28:14.646Z,18.37
2022-10-13T00:30:44.010Z,15.57
2022-10-13T00:33:12.793Z,13.73
2022-10-13T00:35:45.418Z,13.67
2022-10-13T00:38:13.429Z,15.67
2022-10-13T00:40:45.756Z,12.77
2022-10-13T00:43:17.929Z,12.67
2022-10-13T00:45:49.900Z,16.27
2022-10-13T00:48:19.996Z,16.47
2022-10-13T00:50:48.465Z,17.03
2022-10-13T00:53:17.793Z,14.80
2022-10-13T00:55:48.416Z,18.33
2022-10-13T00:58:19.444Z,12.87
2022-10-13T01:00:50.771Z,19.47
2022-10-13T01:03:19.448Z,12.77
2022-10-13T01:05:48.874Z,16.93
2022-10-13T01:08:17.332Z,11.60
2022-10-13T01:10:56.252Z,15.47
2022-10-13T01:13:34.166Z,16.63
2022-10-13T01:16:10.429Z,10.07
2022-10-13T01:18:46.041Z,12.17
2022-10-13T01:21:22.577Z,12.30
2022-10-13T01:24:29.150Z,12.87
2022-10-13T01:27:13.804Z,15.17
2022-10-13T01:30:08.176Z,16.30
2022-10-13T01:32:53.264Z,14.80
2022-10-13T01:35:29.794Z,12.00
2022-10-13T01:38:06.525Z,12.83
2022-10-13T01:40:41.992Z,10.53
2022-10-13T01:43:12.955Z,15.27
2022-10-13T01:45:47.224Z,12.87
2022-10-13T01:48:16.514Z,14.30
2022-10-13T01:50:45.536Z,13.43
2022-10-13T01:53:15.125Z,15.33
2022-10-13T01:55:51.553Z,14.40
2022-10-13T01:58:19.583Z,10.60
2022-10-13T02:01:02.729Z,11.80
2022-10-13T02:03:39.887Z,20.20
2022-10-13T02:06:20.117Z,10.13
2022-10-13T02:08:56.732Z,18.73
2022-10-13T02:11:25.747Z,13.93
2022-10-13T02:14:00.918Z,19.10
2022-10-13T02:16:35.354Z,16.70
2022-10-13T02:19:05.845Z,20.20
2022-10-13T02:21:35.165Z,10.77
2022-10-13T02:24:03.573Z,14.47
2022-10-13T02:26:33.185Z,14.30
2022-10-13T02:29:07.876Z,12.83
2022-10-13T02:31:37.141Z,15.30
2022-10-13T02:34:05.135Z,12.50
2022-10-13T02:36:33.176Z,15.73
2022-10-13T02:39:01.066Z,16.90
2022-10-13T02:41:28.825Z,11.50
2022-10-13T02:43:56.928Z,20.47
2022-10-13T02:46:24.711Z,18.10
2022-10-13T02:48:53.807Z,18.30
2022-10-13T02:51:21.551Z,13.60
2022-10-13T02:53:49.362Z,11.13
2022-10-13T02:56:17.120Z,12.00
2022-10-13T02:58:44.910Z,13.33
2022-10-13T03:01:14.848Z,12.67
2022-10-13T03:03:43.304Z,10.53
2022-10-13T03:06:12.441Z,11.17
2022-10-13T03:08:40.213Z,18.47
2022-10-13T03:11:07.993Z,16.57
2022-10-13T03:13:37.244Z,22.20
2022-10-13T03:16:05.402Z,21.53
2022-10-13T03:18:33.203Z,12.37
2022-10-13T03:21:02.396Z,20.70
2022-10-13T03:23:32.835Z,15.73
2022-10-13T03:26:01.719Z,14.90
2022-10-13T03:28:29.640Z,14.03
2022-10-13T03:31:01.600Z,12.27
2022-10-13T03:33:29.874Z,13.53
2022-10-13T03:36:00.175Z,13.00
2022-10-13T03:38:28.888Z,14.43
2022-10-13T03:40:58.169Z,15.80
2022-10-13T03:43:26.101Z,20.47
2022-10-13T03:45:57.643Z,12.97
2022-10-13T03:48:25.880Z,17.80
2022-10-13T03:50:54.083Z,13.30
2022-10-13T03:53:22.138Z,14.20
2022-10-13T03:55:51.670Z,17.63
2022-10-13T03:58:21.269Z,14.10
2022-10-13T04:00:49.394Z,12.53
2022-10-13T04:03:17.628Z,13.47
2022-10-13T04:05:45.578Z,13.63
2022-10-13T04:08:13.774Z,17.13
2022-10-13T04:10:42.306Z,12.30
2022-10-13T04:13:10.076Z,15.27
2022-10-13T04:15:40.023Z,12.37
2022-10-13T04:18:09.077Z,12.53
2022-10-13T04:20:39.435Z,10.87
2022-10-13T04:23:07.909Z,14.53
2022-10-13T04:25:36.805Z,21.47
2022-10-13T04:28:05.462Z,13.90
2022-10-13T04:30:34.130Z,13.67
2022-10-13T04:33:03.430Z,14.47
2022-10-13T04:35:31.265Z,16.70
2022-10-13T04:37:59.107Z,12.60
2022-10-13T04:40:27.423Z,13.23
2022-10-13T04:42:55.512Z,10.00
2022-10-13T04:45:23.273Z,13.50
2022-10-13T04:47:51.085Z,13.00
2022-10-13T04:50:20.361Z,11.60
2022-10-13T04:52:48.132Z,11.93
2022-10-13T04:55:16.142Z,12.03
2022-10-13T04:57:43.916Z,11.93
2022-10-13T05:00:12.688Z,12.17
2022-10-13T05:02:40.501Z,11.00
2022-10-13T05:05:09.199Z,13.43
2022-10-13T05:07:38.557Z,18.30
2022-10-13T05:10:06.804Z,13.07
2022-10-13T05:12:34.695Z,13.40
2022-10-13T05:15:02.571Z,12.47
2022-10-13T05:17:35.325Z,13.70
2022-10-13T05:20:03.665Z,12.93
2022-10-13T05:22:31.477Z,11.40
2022-10-13T05:25:00.579Z,13.93
2022-10-13T05:27:28.537Z,14.30
2022-10-13T05:29:56.381Z,14.53
2022-10-13T05:32:24.180Z,13.70
2022-10-13T05:34:51.944Z,14.73
2022-10-13T05:37:22.293Z,15.53
2022-10-13T05:39:51.593Z,16.47
2022-10-13T05:42:21.149Z,13.40
2022-10-13T05:44:49.094Z,14.50
2022-10-13T05:47:16.844Z,16.50
2022-10-13T05:49:44.603Z,13.20
2022-10-13T05:52:13.808Z,14.30
2022-10-13T05:54:44.579Z,13.83
2022-10-13T05:57:17.349Z,12.87
2022-10-13T05:59:51.113Z,19.27
2022-10-13T06:02:21.696Z,16.27
2022-10-13T06:04:52.678Z,14.50
2022-10-13T06:07:21.373Z,15.50
2022-10-13T06:09:49.739Z,16.60
2022-10-13T06:12:17.755Z,15.43
2022-10-13T06:14:47.153Z,16.57
2022-10-13T06:17:14.903Z,17.63
2022-10-13T06:19:42.706Z,15.70
2022-10-13T06:22:10.637Z,15.47
2022-10-13T06:24:38.448Z,19.50
2022-10-13T06:27:06.358Z,15.57
2022-10-13T06:29:34.253Z,22.23
2022-10-13T06:32:03.398Z,20.50
2022-10-13T06:34:31.217Z,21.10
2022-10-13T06:36:59.192Z,19.00
2022-10-13T06:39:27.044Z,24.77
2022-10-13T06:41:55.261Z,17.47
2022-10-13T06:44:23.025Z,25.20
2022-10-13T06:46:50.797Z,20.40
2022-10-13T06:49:20.982Z,23.10
2022-10-13T06:51:48.734Z,23.97
2022-10-13T06:54:16.780Z,22.00
2022-10-13T06:56:44.676Z,22.77
2022-10-13T06:59:12.441Z,20.73
2022-10-13T07:01:41.698Z,24.57
2022-10-13T07:04:09.673Z,23.30
2022-10-13T07:06:38.878Z,23.43
2022-10-13T07:09:07.437Z,22.20
2022-10-13T07:11:35.733Z,28.30
2022-10-13T07:14:03.876Z,23.53
2022-10-13T07:16:32.026Z,27.90
2022-10-13T07:18:59.841Z,24.93
2022-10-13T07:21:27.656Z,24.60
2022-10-13T07:23:57.231Z,25.87
2022-10-13T07:26:25.003Z,24.87
2022-10-13T07:28:53.781Z,29.07
2022-10-13T07:31:22.461Z,25.37
2022-10-13T07:33:51.534Z,39.07
2022-10-13T07:36:19.878Z,36.77
2022-10-13T07:38:48.113Z,25.80
2022-10-13T07:41:17.220Z,25.03
2022-10-13T07:43:45.322Z,32.67
2022-10-13T07:46:14.478Z,32.80
2022-10-13T07:48:42.574Z,28.97
2022-10-13T07:51:12.427Z,27.03
2022-10-13T07:53:40.957Z,27.57
2022-10-13T07:56:11.463Z,34.60
2022-10-13T07:58:42.685Z,48.30
2022-10-13T08:01:10.893Z,48.47
2022-10-13T08:03:40.962Z,30.30
2022-10-13T08:06:11.240Z,34.53
2022-10-13T08:08:40.090Z,33.10
2022-10-13T08:11:11.414Z,23.90
2022-10-13T08:13:42.658Z,27.33
2022-10-13T08:16:11.415Z,25.43
2022-10-13T08:18:39.252Z,31.73
2022-10-13T08:23:55.100Z,25.87
2022-10-13T08:26:25.473Z,31.97
2022-10-13T08:29:16.649Z,30.50
2022-10-13T08:31:43.331Z,21.63
2022-10-13T08:34:11.855Z,26.37
2022-10-13T08:36:40.161Z,24.60
2022-10-13T08:39:08.426Z,20.67
2022-10-13T08:41:39.980Z,27.23
2022-10-13T08:47:12.152Z,20.63
2022-10-13T08:49:42.009Z,32.27
2022-10-13T08:52:18.351Z,24.50
2022-10-13T08:54:46.598Z,24.60
2022-10-13T08:57:14.935Z,27.63
2022-10-13T08:59:44.193Z,19.83
2022-10-13T09:02:14.748Z,19.03
2022-10-13T09:04:45.039Z,15.47
2022-10-13T09:07:16.689Z,18.30
2022-10-13T09:09:44.786Z,23.13
2022-10-13T09:12:15.587Z,21.57
2022-10-13T09:14:58.383Z,19.67
2022-10-13T09:17:27.251Z,19.80
2022-10-13T09:20:04.331Z,20.73
2022-10-13T09:22:34.054Z,18.63
2022-10-13T09:25:20.597Z,17.00
2022-10-13T09:27:50.965Z,23.70
2022-10-13T09:30:35.570Z,25.80
2022-10-13T09:33:21.593Z,17.97
2022-10-13T09:35:50.961Z,24.10
2022-10-13T09:38:21.131Z,19.47
2022-10-13T09:40:59.888Z,15.73
2022-10-13T09:43:31.621Z,23.97
2022-10-13T09:46:02.110Z,16.67
2022-10-13T09:48:32.788Z,18.13
2022-10-13T09:51:00.723Z,14.37
2022-10-13T09:53:33.252Z,14.77
2022-10-13T09:56:18.243Z,14.77
2022-10-13T09:58:52.686Z,20.20
2022-10-13T10:01:27.174Z,15.87
2022-10-13T10:03:56.250Z,16.53
2022-10-13T10:06:27.720Z,16.37
2022-10-13T10:09:04.200Z,17.33
2022-10-13T10:11:36.047Z,17.63
2022-10-13T10:14:15.943Z,20.27
2022-10-13T10:16:49.117Z,16.63
2022-10-13T10:19:21.393Z,15.00
2022-10-13T10:21:54.077Z,15.07
2022-10-13T10:24:31.135Z,15.70
2022-10-13T10:27:02.719Z,12.77
2022-10-13T10:29:45.095Z,24.07
2022-10-13T10:32:26.160Z,17.77
2022-10-13T10:34:58.079Z,20.53
2022-10-13T10:37:39.031Z,15.40
2022-10-13T10:40:22.209Z,18.67
2022-10-13T10:43:04.738Z,16.33
2022-10-13T10:45:35.958Z,17.73
2022-10-13T10:48:13.774Z,20.50
2022-10-13T10:50:41.998Z,17.00
2022-10-13T10:53:16.881Z,13.33
2022-10-13T10:55:52.207Z,15.57
2022-10-13T10:58:28.724Z,17.10
2022-10-13T11:01:05.610Z,16.87
2022-10-13T11:03:43.917Z,14.40
2022-10-13T11:06:27.224Z,14.07
2022-10-13T11:08:55.609Z,14.70
2022-10-13T11:11:38.508Z,15.00
2022-10-13T11:14:26.782Z,11.73
2022-10-13T11:17:21.520Z,13.73
2022-10-13T11:19:51.425Z,13.83
2022-10-13T11:22:24.445Z,16.10
2022-10-13T11:25:04.422Z,10.87
2022-10-13T11:27:43.574Z,11.13
2022-10-13T11:30:49.718Z,14.07
2022-10-13T11:33:50.939Z,14.07
2022-10-13T11:36:40.477Z,11.67
2022-10-13T11:39:38.747Z,14.67
2022-10-13T11:42:19.323Z,16.00
2022-10-13T11:44:55.352Z,18.40
2022-10-13T11:47:47.926Z,13.10
2022-10-13T11:50:21.952Z,19.20
2022-10-13T11:53:07.800Z,15.47
2022-10-13T11:55:44.548Z,10.93
2022-10-13T11:58:17.457Z,9.47
2022-10-13T12:00:53.439Z,14.80
2022-10-13T12:03:23.160Z,11.37
2022-10-13T12:05:52.228Z,16.30
2022-10-13T12:08:22.285Z,14.00
2022-10-13T12:10:57.128Z,13.30
2022-10-13T12:13:27.359Z,10.50
2022-10-13T12:16:02.975Z,14.47
2022-10-13T12:18:34.040Z,12.07
2022-10-13T12:21:04.140Z,11.03
2022-10-13T12:23:34.038Z,15.23
2022-10-13T12:26:02.581Z,11.13
2022-10-13T12:28:32.312Z,9.10
2022-10-13T12:31:01.313Z,17.00
2022-10-13T12:33:31.833Z,12.43
2022-10-13T12:36:14.578Z,15.17
2022-10-13T12:38:48.202Z,12.03
2022-10-13T12:41:19.183Z,17.17
2022-10-13T12:43:47.259Z,9.03
2022-10-13T12:46:39.036Z,16.23
2022-10-13T12:49:07.402Z,14.40
2022-10-13T12:51:37.680Z,18.07
2022-10-13T12:54:10.397Z,11.97
2022-10-13T12:56:38.221Z,14.30
2022-10-13T12:59:06.133Z,10.37
2022-10-13T13:01:35.589Z,9.83
2022-10-13T13:04:16.968Z,10.17
2022-10-13T13:06:54.636Z,13.60
2022-10-13T13:09:27.192Z,10.83
2022-10-13T13:12:24.063Z,11.77
2022-10-13T13:14:54.788Z,14.33
2022-10-13T13:17:56.555Z,14.33
2022-10-13T13:20:23.761Z,12.93
2022-10-13T13:22:51.842Z,13.00
2022-10-13T13:25:21.101Z,10.30
2022-10-13T13:27:48.939Z,15.33
2022-10-13T13:30:18.817Z,13.40
2022-10-13T13:32:46.819Z,9.60
2022-10-13T13:35:14.757Z,9.30
2022-10-13T13:37:45.713Z,10.23
2022-10-13T13:40:17.242Z,15.30
2022-10-13T13:42:46.635Z,21.80
2022-10-13T13:45:15.064Z,14.90
2022-10-13T13:47:43.064Z,8.83
2022-10-13T13:50:17.623Z,8.80
2022-10-13T13:52:45.519Z,14.93
2022-10-13T13:55:13.316Z,14.93
2022-10-13T13:57:42.466Z,9.93
2022-10-13T14:00:15.030Z,12.73
2022-10-13T14:02:43.537Z,10.13
2022-10-13T14:05:12.211Z,13.93
2022-10-13T14:07:40.011Z,10.33
2022-10-13T14:10:09.774Z,9.90
2022-10-13T14:12:38.822Z,11.17
2022-10-13T14:15:07.834Z,20.43
2022-10-13T14:17:37.038Z,19.43
2022-10-13T14:20:05.522Z,12.33
2022-10-13T14:22:33.264Z,13.43
2022-10-13T14:25:01.145Z,10.97
2022-10-13T14:27:30.754Z,12.63
2022-10-13T14:29:58.519Z,9.83
2022-10-13T14:32:26.392Z,15.27
2022-10-13T14:34:55.558Z,10.13
2022-10-13T14:37:25.086Z,11.30
2022-10-13T14:39:55.548Z,9.50
2022-10-13T14:42:23.607Z,12.10
2022-10-13T14:44:51.456Z,8.73
2022-10-13T14:47:19.573Z,12.80
2022-10-13T14:49:47.575Z,10.33
2022-10-13T14:52:16.689Z,11.43
2022-10-13T14:54:45.175Z,10.73
2022-10-13T14:57:15.740Z,12.50
2022-10-13T14:59:44.121Z,15.50
2022-10-13T15:02:12.917Z,12.57
2022-10-13T15:04:40.981Z,9.40
2022-10-13T15:07:09.183Z,16.10
2022-10-13T15:09:52.832Z,12.83
2022-10-13T15:12:26.097Z,13.83
2022-10-13T15:14:53.893Z,13.57
2022-10-13T15:17:21.851Z,9.30
2022-10-13T15:19:49.870Z,11.57
2022-10-13T15:22:17.743Z,8.93
2022-10-13T15:24:47.049Z,13.57
2022-10-13T15:27:14.830Z,14.37
2022-10-13T15:29:42.653Z,10.47
2022-10-13T15:32:12.041Z,8.40
2022-10-13T15:34:40.536Z,13.83
2022-10-13T15:37:08.721Z,8.57
2022-10-13T15:39:36.488Z,9.47
2022-10-13T15:42:06.183Z,12.33
2022-10-13T15:44:51.284Z,10.77
2022-10-13T15:47:21.736Z,11.03
2022-10-13T15:49:49.503Z,12.50
2022-10-13T15:52:17.353Z,11.77
2022-10-13T15:54:45.238Z,9.30
2022-10-13T15:57:14.480Z,10.70
2022-10-13T15:59:42.270Z,13.93
2022-10-13T16:02:11.282Z,13.50
2022-10-13T16:04:39.081Z,14.97
2022-10-13T16:07:06.836Z,9.87
2022-10-13T16:09:34.681Z,12.90
2022-10-13T16:12:02.592Z,14.50
2022-10-13T16:14:31.922Z,10.27
2022-10-13T16:16:59.697Z,11.57
2022-10-13T16:19:27.596Z,14.30
2022-10-13T16:21:55.393Z,12.40
2022-10-13T16:24:23.204Z,9.40
2022-10-13T16:26:51.020Z,9.20
2022-10-13T16:29:18.895Z,16.67
2022-10-13T16:31:47.966Z,10.43
2022-10-13T16:34:16.038Z,9.73
2022-10-13T16:36:43.890Z,13.13
2022-10-13T16:39:11.813Z,20.33
2022-10-13T16:41:39.641Z,12.60
2022-10-13T16:44:07.465Z,16.87
2022-10-13T16:46:35.489Z,9.33
2022-10-13T16:49:04.664Z,11.07
2022-10-13T16:51:32.457Z,9.70
2022-10-13T16:54:04.284Z,10.33
2022-10-13T16:56:32.296Z,10.37
2022-10-13T16:59:01.672Z,23.37
2022-10-13T17:01:30.138Z,13.90
2022-10-13T17:03:58.150Z,12.57
2022-10-13T17:06:28.592Z,11.03
2022-10-13T17:08:57.678Z,12.23
2022-10-13T17:11:27.970Z,13.63
2022-10-13T17:13:57.617Z,11.10
2022-10-13T17:16:26.193Z,13.27
2022-10-13T17:18:54.198Z,11.60
2022-10-13T17:21:21.984Z,11.47
2022-10-13T17:23:51.093Z,10.23
2022-10-13T17:26:20.801Z,11.80
2022-10-13T17:28:48.733Z,7.50
2022-10-13T17:31:17.990Z,13.30
2022-10-13T17:33:46.733Z,12.07
2022-10-13T17:36:16.313Z,15.73
2022-10-13T17:38:44.307Z,11.03
2022-10-13T17:41:15.473Z,9.77
2022-10-13T17:43:44.272Z,29.60
2022-10-13T17:49:02.606Z,41.37
2022-10-13T17:51:30.456Z,32.90
2022-10-13T17:54:01.575Z,25.10
2022-10-13T17:56:31.508Z,15.70
2022-10-13T17:59:00.211Z,17.23
2022-10-13T18:01:30.071Z,19.43
2022-10-13T18:03:59.997Z,11.87
2022-10-13T18:06:36.828Z,15.80
2022-10-13T18:09:06.752Z,15.00
2022-10-13T18:11:36.873Z,16.23
2022-10-13T18:14:05.291Z,11.50
2022-10-13T18:16:33.223Z,10.80
2022-10-13T18:19:01.082Z,12.80
2022-10-13T18:21:29.279Z,10.37
2022-10-13T18:23:58.212Z,11.53
2022-10-13T18:26:27.340Z,11.50
2022-10-13T18:28:56.534Z,11.40
2022-10-13T18:31:27.422Z,11.63
2022-10-13T18:33:56.529Z,14.10
2022-10-13T18:36:26.870Z,13.60
2022-10-13T18:38:56.044Z,17.43
2022-10-13T18:41:25.139Z,12.67
2022-10-13T18:43:52.904Z,14.03
2022-10-13T18:46:21.985Z,13.10
2022-10-13T18:48:49.923Z,11.93
2022-10-13T18:51:19.511Z,12.23
2022-10-13T18:53:50.439Z,15.70
2022-10-13T18:56:20.886Z,11.10
2022-10-13T18:58:49.137Z,13.33
2022-10-13T19:01:19.425Z,14.00
2022-10-13T19:03:49.077Z,17.60
2022-10-13T19:06:17.778Z,19.83
2022-10-13T19:08:46.253Z,12.70
2022-10-13T19:11:15.146Z,9.77
2022-10-13T19:13:44.002Z,13.10
2022-10-13T19:16:13.093Z,16.70
2022-10-13T19:18:41.042Z,15.37
2022-10-13T19:21:11.569Z,22.33
2022-10-13T19:23:39.841Z,16.10
2022-10-13T19:26:13.907Z,22.00
2022-10-13T19:28:42.931Z,17.60
2022-10-13T19:31:11.538Z,18.80
2022-10-13T19:33:44.697Z,21.23
2022-10-13T19:36:24.210Z,17.37
2022-10-13T19:38:52.470Z,15.80
2022-10-13T19:41:20.441Z,21.60
2022-10-13T19:43:48.498Z,16.60
2022-10-13T19:46:17.007Z,10.83
2022-10-13T19:48:45.291Z,11.47
2022-10-13T19:51:15.380Z,11.80
2022-10-13T19:53:43.498Z,14.03
2022-10-13T19:56:22.093Z,15.23
2022-10-13T19:58:49.973Z,12.93
2022-10-13T20:01:19.110Z,12.90
2022-10-13T20:03:47.224Z,9.33
2022-10-13T20:06:17.263Z,16.37
2022-10-13T20:08:45.856Z,16.10
2022-10-13T20:11:19.336Z,12.00
2022-10-13T20:13:50.144Z,13.37
2022-10-13T20:16:20.805Z,12.13
2022-10-13T20:18:52.414Z,16.87
2022-10-13T20:21:22.016Z,11.07
2022-10-13T20:23:50.631Z,13.87
2022-10-13T20:26:19.633Z,16.63
2022-10-13T20:28:49.231Z,14.50
2022-10-13T20:31:19.229Z,15.60
2022-10-13T20:33:49.285Z,15.30
2022-10-13T20:36:18.692Z,12.20
2022-10-13T20:38:48.555Z,10.73
2022-10-13T20:41:18.385Z,13.37
2022-10-13T20:43:46.269Z,14.53
2022-10-13T20:46:14.774Z,15.03
2022-10-13T20:51:31.780Z,12.70
2022-10-13T20:54:00.877Z,17.60
2022-10-13T20:56:28.961Z,13.00
2022-10-13T20:58:57.097Z,16.37
2022-10-13T21:01:25.062Z,17.53
2022-10-13T21:03:53.699Z,22.10
2022-10-13T21:06:22.685Z,19.37
2022-10-13T21:08:50.743Z,10.93
2022-10-13T21:11:21.865Z,19.07
2022-10-13T21:13:50.577Z,10.50
2022-10-13T21:16:20.641Z,10.93
2022-10-13T21:18:49.919Z,9.07
2022-10-13T21:21:19.622Z,9.70
2022-10-13T21:23:50.474Z,10.57
2022-10-13T21:26:21.907Z,14.90
2022-10-13T21:28:50.745Z,13.80
2022-10-13T21:31:20.236Z,16.90
2022-10-13T21:33:48.053Z,24.50
2022-10-13T21:36:18.784Z,13.40
2022-10-13T21:38:47.775Z,11.80
2022-10-13T21:41:16.008Z,11.87
2022-10-13T21:43:45.134Z,15.53
2022-10-13T21:46:14.348Z,12.47
2022-10-13T21:48:42.310Z,16.97
2022-10-13T21:51:15.661Z,13.00
2022-10-13T21:53:44.070Z,12.37
2022-10-13T21:56:12.697Z,12.00
2022-10-13T21:58:40.681Z,15.13
2022-10-13T22:01:09.991Z,12.13
2022-10-13T22:03:38.028Z,16.20
2022-10-13T22:06:07.927Z,15.80
2022-10-13T22:08:39.018Z,24.77
2022-10-13T22:11:08.019Z,16.73
2022-10-13T22:13:36.852Z,14.20
2022-10-13T22:16:05.301Z,21.63
2022-10-13T22:18:34.585Z,12.90
2022-10-13T22:21:02.824Z,12.63
2022-10-13T22:23:30.833Z,19.57
2022-10-13T22:25:58.655Z,9.13
2022-10-13T22:28:26.646Z,8.97
2022-10-13T22:30:54.635Z,13.23
2022-10-13T22:33:22.419Z,11.10
2022-10-13T22:35:51.506Z,8.73
2022-10-13T22:38:19.276Z,10.93
2022-10-13T22:40:47.224Z,11.57
2022-10-13T22:43:15.010Z,6.40
2022-10-13T22:45:52.340Z,11.13
2022-10-13T22:48:20.109Z,9.97
2022-10-13T22:50:47.944Z,7.23
2022-10-13T22:53:17.040Z,8.50
2022-10-13T22:55:44.881Z,8.27
2022-10-13T23:00:54.200Z,10.10
2022-10-13T23:03:21.965Z,11.33
2022-10-13T23:05:49.974Z,10.20
2022-10-13T23:08:19.067Z,6.83
2022-10-13T23:10:47.132Z,6.53
2022-10-13T23:13:14.963Z,8.37
2022-10-13T23:15:42.700Z,5.20
2022-10-13T23:18:10.473Z,7.00
2022-10-13T23:20:40.745Z,5.90
2022-10-13T23:23:08.975Z,8.10
2022-10-13T23:25:38.491Z,5.70
2022-10-13T23:28:06.408Z,6.30
2022-10-13T23:30:34.164Z,6.07
2022-10-13T23:33:01.903Z,5.53
2022-10-13T23:35:29.855Z,6.47
2022-10-13T23:37:57.632Z,5.20
2022-10-13T23:40:25.421Z,6.67
2022-10-13T23:42:54.473Z,5.13
2022-10-13T23:45:22.274Z,4.30
2022-10-13T23:47:49.989Z,5.20
2022-10-13T23:50:17.817Z,5.03
2022-10-13T23:52:45.564Z,7.80
2022-10-13T23:55:13.737Z,5.87
2022-10-13T23:57:41.497Z,4.77
